Vue régionale

METAR et TAF

Jeudi 09 juillet 2020 à 00h15

Visibilités horizontales observées à différents aéroports. Les observations (METAR) et prévisions aéronautiques (TAF) complètes sont disponibles en cliquant sur l’icône correspondante.

  • Luxemburg (ELLX)

    Taf: TAF ELLX 081700Z 0818/0924 25008KT 9999 FEW015 BKN030 PROB30 TEMPO 0818/0820 -RA FEW007 BKN013 TEMPO 0918/0924 VRB02KT=

    Metar: METAR ELLX 082150Z 26005KT 9999 BKN040 17/14 Q1018 NOSIG=

  • Spangdahlem (ETAD)

    Taf: TAF ETAD 081957Z 0820/1002 25007KT 8000 -SHRA BR SCT006 BKN010 QNH3003INS TEMPO 0820/0822 BKN006 BECMG 0822/0823 24008KT 6000 BR BKN005 OVC007 QNH2999INS BECMG 0907/0908 25010G15KT 9999 NSW SCT008 BKN015 QNH3001INS BECMG 0909/0910 25012G22KT 9999 SCT050 BKN110 520006 QNH2994INS BECMG 0917/0918 21006KT 9999 SCT050 QNH2990INS TX22/0913Z TN14/0904Z LAST NO AMDS AFT 0820=

    Metar: METAR ETAD 082156Z AUTO 21005KT 9999 SCT008 OVC042 16/16 A3004 RMK AO2 SLP157 T01560156 CHINO RWY05 $=

  • Metz/Nancy (LFJL)

    Taf: TAF LFJL 081700Z 0818/0918 32006KT CAVOK BECMG 0909/0912 24015KT=

    Metar: METAR LFJL 082200Z AUTO 04004KT CAVOK 19/15 Q1018 NOSIG=

  • Saarbrücken/Intl (EDDR)

    Taf: TAF EDDR 081700Z 0818/0918 29008KT CAVOK BECMG 0818/0820 23003KT BECMG 0905/0909 24010KT PROB30 TEMPO 0911/0917 26015G25KT=

    Metar: METAR EDDR 082150Z 08002KT CAVOK 17/14 Q1018=

  • Hahn (EDFH)

    Taf: TAF EDFH 081700Z 0818/0918 26006KT 8000 BKN008 TEMPO 0818/0905 2000 RADZ BR OVC002 BECMG 0907/0909 25011KT SCT015 TEMPO 0909/0917 26015G25KT=

    Metar: METAR EDFH 082150Z 25008KT 9999 BKN010 15/15 Q1018=

  • Ramstein (ETAR)

    Taf: TAF ETAR 081800Z 0818/0924 25009KT 9999 SCT025 BKN040 QNH3003INS BECMG 0902/0903 23006KT 9999 SCT015 BKN020 QNH3002INS BECMG 0908/0909 25010G20KT 9999 SCT040 510004 QNH2996INS BECMG 0917/0918 VRB06KT 9999 SCT070 BKN100 QNH2991INS TX28/0915Z TN10/0904Z=

    Metar: METAR ETAR 082156Z AUTO 00000KT 9999 OVC050 17/16 A3005 RMK AO2 SLP173 T01690164 FZRANO $=

  • Nancy/Ochey (LFSO)

    Taf: TAF LFSO 082000Z NIL=

    Metar: METAR LFSO 082200Z AUTO VRB02KT CAVOK 18/12 Q1018=

  • Liège Bierset (EBLG)

    Taf: TAF EBLG 081710Z 0818/0924 23007KT 7000 -RADZ SCT004 BKN006 TEMPO 0818/0907 2500 DZRA BKN003 BECMG 0908/0910 SCT015=

    Metar: METAR EBLG 082150Z 25008KT 9999 -DZ SCT007 BKN013 16/15 Q1016 TEMPO 4000 DZRA BKN004=

  • Saint-Dizier (LFSI)

    Taf: TAF LFSI 082000Z 0821/0921 VRB02KT CAVOK BECMG 0908/0910 24012KT=

    Metar: METAR LFSI 082200Z AUTO 09001KT CAVOK 20/15 Q1017=

  • Maastricht/Zuid Limburg (EHBK)

    Taf: TAF COR EHBK 081717Z 0818/0924 23007KT 9999 BKN012 TEMPO 0818/0908 4000 DZ BKN006 PROB40 TEMPO 0821/0907 2000 BKN004 BECMG 0907/0909 CAVOK=

    Metar: METAR EHBK 082155Z AUTO 23004KT 200V260 7000 FEW000 SCT003 BKN007 FEW015CB 16/16 Q1016=

  • Köln/Köln-Bonn (EDDK)

    Taf: TAF EDDK 081700Z 0818/0924 VRB03KT 9000 BKN008 TEMPO 0818/0823 3000 RADZ BR SCT010 BKN015 TEMPO 0823/0907 3500 RADZ BR BKN004 BECMG 0900/0903 21005KT BECMG 0908/0911 26010KT BKN030 BECMG 0917/0920 11004KT=

    Metar: METAR EDDK 082150Z VRB06KT 9999 -RADZ SCT005 SCT016 OVC030 16/15 Q1016 TEMPO BKN012=

  • Charleroi (EBCI)

    Taf: TAF EBCI 081710Z 0818/0924 24008KT 7000 -RADZ SCT004 BKN006 TEMPO 0818/0906 2500 DZRA BKN003 BECMG 0908/0910 SCT015 PROB30 TEMPO 0922/0924 SCT008 BKN012=

    Metar: METAR EBCI 082150Z 25010KT 7000 -DZ SCT003 OVC005 16/15 Q1017 TEMPO 4500 -RADZ BKN004=

  • Wiesbaden (ETOU)

    Taf: TAF AMD ETOU 081958Z 0819/0918 17006KT 5000 -RA BR OVC020 QNH3003INS BECMG 0821/0822 18003KT 3200 -RA BR OVC005 QNH3002INS BECMG 0904/0905 23005KT 8000 BR OVC015 QNH3001INS BECMG 0908/0909 25010G15KT 9999 NSW BKN030 QNH2999INS BECMG 0912/0913 26012G18KT 9999 SCT060 QNH2996INS TX26/0912Z TN13/0903Z LAST NO AMDS AFT 0820 NEXT 0904=

    Metar: METAR ETOU 082156Z AUTO 00000KT 9999 OVC004 16/16 A3005 RMK AO2 CIG 003 RWY07 SLP177 T01590159 $=

  • Karlsruhe/Baden-Baden (EDSB)

    Taf: TAF EDSB 081700Z 0818/0918 26006KT CAVOK BECMG 0818/0820 VRB03KT BECMG 0905/0907 24008KT=

    Metar: METAR EDSB 082150Z 03005KT CAVOK 17/12 Q1018=

  • Chalons/Vatry (LFOK)

    Taf: TAF LFOK 081700Z 0818/0918 30012KT CAVOK BECMG 0820/0823 VRB02KT BECMG 0908/0910 26010KT=

    Metar: METAR LFOK 082200Z AUTO 08005KT CAVOK 19/15 Q1017 NOSIG=

  • Frankfurt/Main (EDDF)

    Taf: TAF EDDF 081700Z 0818/0924 VRB03KT 9999 FEW015 BKN045 PROB30 TEMPO 0822/0906 4000 -RADZ BR BKN014 BECMG 0903/0906 22008KT BECMG 0909/0912 24013KT SCT045 TEMPO 0911/0919 26015G25KT BECMG 0917/0919 26006KT BECMG 0920/0922 20004KT=

    Metar: METAR EDDF 082150Z 19003KT 150V220 9999 FEW003 16/15 Q1017 NOSIG=

  • Brüssel (EBBR)

    Taf: TAF EBBR 081710Z 0818/0924 24007KT 7000 -RADZ BKN007 BKN012 TEMPO 0818/0907 2500 DZRA BKN004 BECMG 0906/0908 SCT018 PROB30 TEMPO 0922/0924 SCT010 BKN014=

    Metar: METAR EBBR 082150Z 24007KT 9999 SCT007 BKN010 16/16 Q1016 TEMPO BKN007=

  • Düsseldorf (EDDL)

    Taf: TAF EDDL 081700Z 0818/0924 20005KT 9999 BKN008 TEMPO 0818/0823 4000 -RADZ BR SCT010 BKN015 TEMPO 0823/0909 3000 DZRA BR BKN004 BECMG 0903/0906 23012KT BECMG 0908/0911 BKN020 TEMPO 0910/0914 24015G25KT BECMG 0915/0918 27005KT BECMG 0920/0923 16006KT=

    Metar: METAR EDDL 082150Z 18003KT 140V230 8000 -DZ FEW002 SCT004 BKN026 16/16 Q1016 NOSIG=

  • Luxeuil (LFSX)

    Taf: TAF LFSX 082000Z NIL=

    Metar: METAR LFSX 082200Z AUTO 10003KT CAVOK 19/15 Q1018=

  • Eindhoven (EHEH)

    Taf: TAF EHEH 081711Z 0818/0924 22007KT 7000 -RA SCT008 BKN012 TEMPO 0818/0912 3500 RA RADZ SCT004 BKN006 PROB40 TEMPO 0818/0911 2000 DZ SCT002 BKN005 BECMG 0909/0912 24010KT 9999 NSW SCT010 BKN015 OVC080 BECMG 0913/0915 SCT020=

    Metar: METAR EHEH 082155Z AUTO 19004KT 9999 DZ BKN012 OVC015 16/15 Q1015 GRN=

  • Niederrhein (EDLV)

    Taf: TAF EDLV 081700Z 0818/0918 VRB03KT 9000 BKN008 TEMPO 0818/0822 3000 -RADZ BR SCT010 BKN015 TEMPO 0822/0910 2500 DZRA BR BKN004 BECMG 0900/0903 21005KT BECMG 0905/0908 24012KT BECMG 0910/0913 BKN020 BECMG 0915/0918 26007KT=

    Metar: METAR EDLV 082150Z 20004KT 9999 SCT007 16/15 Q1016=

  • Dortmund/Wickede (EDLW)

    Taf: TAF AMD EDLW 082120Z 0821/0918 CNL=

    Metar: METAR EDLW 082150Z AUTO 16006KT 9999 // FEW005/// SCT017/// BKN056/// 15/14 Q1016=

  • Stuttgart/Echterdingen (EDDS)

    Taf: TAF EDDS 081700Z 0818/0918 26008KT CAVOK BECMG 0819/0821 VRB03KT BECMG 0908/0910 26007KT=

    Metar: METAR EDDS 082150Z VRB02KT CAVOK 17/12 Q1019=

  • Basel-Mühlhausen (LFSB)

    Taf: TAF LFSB 081700Z 0818/0918 27010KT CAVOK BECMG 0818/0820 19004KT BECMG 0909/0911 30010KT=

    Metar: METAR LFSB 082200Z AUTO 21001KT CAVOK 16/13 Q1018 NOSIG=

  • Lille (LFQQ)

    Taf: TAF LFQQ 081700Z 0818/0924 24010KT 9999 OVC016 TEMPO 0818/0906 OVC008 TEMPO 0912/0918 4000 RA=

    Metar: METAR LFQQ 082200Z AUTO 23009KT 9999 OVC009 17/15 Q1016 NOSIG=

  • Paris/Charles de Gaulle (LFPG)

    Taf: TAF LFPG 081700Z 0818/0924 32010KT CAVOK TX30/0915Z TN16/0904Z TEMPO 0823/0903 VRB02KT BECMG 0903/0905 22005KT BECMG 0920/0922 33010KT=

    Metar: METAR LFPG 082200Z 33005KT CAVOK 20/15 Q1018 NOSIG=

  • Paderborn/Lippstadt (EDLP)

    Taf: TAF AMD EDLP 082050Z 0820/0918 CNL=

    Metar: METAR EDLP NIL=

  • Paris/Le Bourget (LFPB)

    Taf: TAF LFPB 081700Z 0818/0918 32010KT CAVOK TEMPO 0823/0903 VRB02KT BECMG 0903/0905 22005KT=

    Metar: METAR LFPB 082200Z AUTO 32005KT CAVOK 21/15 Q1017 NOSIG=

  • Rotterdam (EHRD)

    Taf: TAF EHRD 081710Z 0818/0924 28004KT 9999 SCT008 BKN016 PROB30 TEMPO 0820/0904 2500 DZ BKN004 BECMG 0822/0901 19005KT 4000 RADZ BKN008 BECMG 0902/0905 23011KT BECMG 0905/0908 25016KT 9999 NSW BKN012 TEMPO 0909/0924 7000 -RADZ BKN008 BECMG 0914/0917 25010KT BECMG 0918/0921 21007KT=

    Metar: METAR EHRD 082155Z AUTO 08003KT 8000 DZ SCT011 BKN013 BKN017 16/16 Q1014 BECMG BKN008=

  • Zürich/Kloten (LSZH)

    Taf: TAF LSZH 082025Z 0821/1003 VRB03KT CAVOK TX29/0915Z TN13/0904Z BECMG 0910/0912 29008KT BECMG 0916/0918 VRB03KT=

    Metar: METAR LSZH 082150Z 14004KT CAVOK 17/11 Q1019 NOSIG=

  • Oostende/Intl (EBOS)

    Taf: TAF EBOS 081710Z 0818/0924 22010KT 8000 -RADZ SCT006 BKN010 TEMPO 0818/0905 2500 DZRA BKN004 PROB30 TEMPO 0906/0910 24016G30KT 4000 SHRA BKN006 PROB40 0918/0924 BKN006=

    Metar: METAR EBOS 082150Z 23007KT 6000 -DZRA SCT003 BKN005 16/15 Q1015 TEMPO 2800 DZRA BKN004=

  • Paris/Orly (LFPO)

    Taf: TAF LFPO 081700Z 0818/0924 30008KT CAVOK TEMPO 0900/0906 VRB03KT BECMG 0906/0908 24006KT BECMG 0922/0924 32010KT BKN020=

    Metar: METAR LFPO 082200Z 32006KT CAVOK 21/15 Q1018 NOSIG=

  • Beauvais (LFOB)

    Taf: TAF LFOB 081700Z 0818/0918 26008KT 9999 BKN030=

    Metar: METAR LFOB 082200Z AUTO 27005KT CAVOK 17/15 Q1017 NOSIG=

  • Münster/Intl (EDDG)

    Taf: TAF EDDG 081700Z 0818/0918 23005KT 9999 BKN020 BECMG 0818/0820 VRB03KT TEMPO 0818/0821 3500 -RADZ BR BKN009 BECMG 0821/0824 BKN007 TEMPO 0900/0909 3000 DZRA BR BKN004 BECMG 0905/0908 22006KT BECMG 0910/0913 24012KT BKN015 BECMG 0915/0918 26007KT=

    Metar: METAR EDDG 082150Z 14003KT 100V170 9000 BKN013 BKN034 15/14 Q1015 TEMPO BKN008=

  • Illesheim (ETIK)

    Taf: TAF ETIK 082200Z 0822/1004 23006KT 8000 -RA BR BKN015 QNH3003INS BECMG 0903/0904 22006KT 9999 NSW BKN030 QNH3000INS BECMG 0908/0909 25012G18KT 8000 -SHRA BKN030 QNH2996INS BECMG 0916/0917 26009KT 9999 NSW FEW050 SCT120 QNH2991INS TX26/0914Z TN12/0902Z=

    Metar: METAR ETIK 082156Z AUTO 00000KT 9999 FEW013 BKN033 OVC047 14/14 A3010 RMK AO2 DZE25DZB33E42 SLP188 P0002 T01420142 FZRANO $=

  • Duebendorf (LSMD)

    Taf: TAF LSMD 081625Z 0817/0923 28004KT CAVOK PROB40 TEMPO 0911/0916 9999 FEW050=

    Metar: METAR LSMD 082150Z AUTO VRB02KT 9999NDV NCD 17/12 Q1020 RMK=

  • Villacoublay (LFPV)

    Taf: TAF LFPV 082000Z 0821/0921 32005KT CAVOK=

    Metar: METAR LFPV 082200Z AUTO 34003KT 320V020 CAVOK 20/15 Q1018 NOSIG=

  • Payerne (LSMP)

    Taf: TAF LSMP 081625Z 0817/0923 VRB03KT CAVOK=

    Metar: METAR LSMP 082150Z AUTO 20004KT 9999NDV NCD 17/13 Q1019 RMK=

  • Amsterdam/Schipol (EHAM)

    Taf: TAF EHAM 081710Z 0818/0924 06005KT 9999 SCT008 BKN016 PROB30 TEMPO 0820/0905 2000 DZ BKN003 BECMG 0823/0902 4000 RADZ BKN008 BECMG 0903/0906 23011KT BECMG 0906/0909 25016KT 9999 NSW BKN012 TEMPO 0909/0924 7000 -RADZ BKN008 BECMG 0914/0917 25010KT BECMG 0918/0921 21007KT=

    Metar: METAR EHAM 082155Z 11004KT 7000 -RA FEW003 BKN006 BKN016 15/14 Q1015 NOSIG=

  • Emmen (LSME)

    Taf: TAF LSME 081625Z 0817/0923 30005KT CAVOK PROB40 TEMPO 0911/0916 9999 FEW050=

    Metar: METAR LSME 082150Z AUTO 00000KT 9999NDV NCD 18/13 Q1020 RMK=

  • Friedrichshafen (EDNY)

    Taf: TAF EDNY 081700Z 0818/0918 25008KT CAVOK BECMG 0818/0821 VRB03KT BECMG 0907/0909 25006KT=

    Metar: METAR EDNY 082150Z AUTO 00000KT 9999 // NCD 17/13 Q1019=

  • Alpnach (LSMA)

    Taf: TAF LSMA 081625Z 0817/0923 06010KT CAVOK BECMG 0817/0820 VRB03KT BECMG 0908/0910 06010KT PROB40 TEMPO 0911/0916 9999 FEW050=

    Metar: METAR LSMA 082150Z AUTO 24004KT 9999NDV NCD 17/13 Q1020 RMK=

  • Meiringen (LSMM)

    Taf: TAF LSMM 081625Z 0817/0923 26007KT CAVOK PROB40 TEMPO 0911/0916 9999 FEW050=

    Metar: METAR LSMM 082150Z AUTO 11009KT 9999NDV NCD 16/12 Q1020 RMK=

  • Nürnberg (EDDN)

    Taf: TAF AMD EDDN 082056Z 0820/0918 VRB03KT 9999 SCT008 BKN025 TEMPO 0820/0823 4500 -DZRA BKN008 BECMG 0906/0908 24006KT BECMG 0910/0912 26011KT BECMG 0917/0918 28006KT=

    Metar: METAR EDDN 082150Z 25004KT 8000 -RA FEW003 BKN007 OVC023 14/14 Q1019=

  • Rouen (LFOP)

    Taf: TAF AMD LFOP 082000Z 0820/0918 CNL=

    Metar: METAR LFOP 082200Z AUTO 26006KT 9999 FEW019 16/15 Q1018=

  • Evreux (LFOE)

    Taf: TAF LFOE 081600Z 0816/0915 CNL=

    Metar: METAR LFOE 082200Z AUTO 27002KT CAVOK 17/14 Q1018=

  • Erfurt/Bindersleben (EDDE)

    Taf: TAF EDDE 081700Z 0818/0918 25007KT 9999 BKN030 BECMG 0822/0901 19005KT PROB30 TEMPO 0904/0911 4000 -RADZ BKN010 BECMG 0909/0912 23012KT=

    Metar: METAR EDDE 082150Z 20005KT CAVOK 13/11 Q1017=